Time;durP1;ratioP1;P1;durP2;ratioP2;P2;SDS_P1;SDS_P2;PMS_P1;PMS_P2;Temp;Humidity;BMP_temperature;BMP_pressure;BME280_temperature;BME280_humidity;BME280_pressure;Samples;Min_cycle;Max_cycle;Signal;HPM_P1;HPM_P2
2023/01/19 00:01:09;;;;;;;;;;;;;;;3.86;81.02;100164.31;5046982;28;20423;-50
2023/01/19 00:03:34;;;;;;;;;;;;;;;3.87;80.64;100167.72;5044922;28;19924;-54
2023/01/19 00:06:03;;;;;;;;;;;;;;;3.88;80.85;100154.19;5045530;28;19927;-54
2023/01/19 00:08:28;;;;;;;;;;;;;;;3.85;80.91;100161.69;5045175;28;19947;-54
2023/01/19 00:10:53;;;;;;;;;;;;;;;3.84;80.98;100165.06;5049107;28;20373;-52
2023/01/19 00:13:19;;;;;;;;;;;;;;;3.84;81.02;100165.91;5046809;28;20331;-48
2023/01/19 00:15:44;;;;;;;;;;;;;;;3.82;81.41;100161.56;5049925;28;19921;-53
2023/01/19 00:18:09;;;;;;;;;;;;;;;3.80;81.42;100163.16;5050785;28;20007;-53
2023/01/19 00:20:34;;;;;;;;;;;;;;;3.78;81.57;100167.31;5050360;28;20321;-54
2023/01/19 00:23:00;;;;;;;;;;;;;;;3.75;81.71;100162.97;5051894;28;20369;-53
2023/01/19 00:25:25;;;;;;;;;;;;;;;3.74;81.59;100168.84;5051538;28;19920;-54
2023/01/19 00:27:51;;;;;;;;;;;;;;;3.74;81.66;100163.78;5050224;28;20451;-54
2023/01/19 00:30:16;;;;;;;;;;;;;;;3.75;81.38;100168.91;5051244;28;19921;-53
2023/01/19 00:32:41;;;;;;;;;;;;;;;3.79;81.76;100171.59;5050011;28;19946;-47
2023/01/19 00:35:07;;;;;;;;;;;;;;;3.79;81.73;100181.78;5050081;28;19943;-54
2023/01/19 00:37:32;;;;;;;;;;;;;;;3.77;81.79;100174.09;5049192;28;19932;-53
2023/01/19 00:39:57;;;;;;;;;;;;;;;3.75;82.04;100174.00;5050235;28;19921;-54
2023/01/19 00:42:43;;;;;;;;;;;;;;;3.74;81.92;100169.72;5050804;28;20309;-50
2023/01/19 00:45:08;;;;;;;;;;;;;;;3.73;81.88;100160.34;5049806;28;19920;-54
2023/01/19 00:47:33;;;;;;;;;;;;;;;3.71;82.11;100146.72;5048899;28;19916;-54
2023/01/19 00:49:59;;;;;;;;;;;;;;;3.71;82.15;100149.25;5053755;28;19928;-52
2023/01/19 00:52:24;;;;;;;;;;;;;;;3.69;82.02;100150.84;5051240;28;19916;-53
2023/01/19 00:54:49;;;;;;;;;;;;;;;3.69;82.28;100155.94;5051316;28;19963;-53
2023/01/19 00:57:15;;;;;;;;;;;;;;;3.66;82.83;100162.56;5048639;28;19921;-52
2023/01/19 00:59:40;;;;;;;;;;;;;;;3.64;82.19;100162.50;5049764;28;20235;-54
2023/01/19 01:02:05;;;;;;;;;;;;;;;3.64;82.47;100162.50;5051453;28;20022;-54
2023/01/19 01:04:31;;;;;;;;;;;;;;;3.63;82.75;100162.41;5047624;28;19924;-52
2023/01/19 01:06:56;;;;;;;;;;;;;;;3.62;82.58;100163.22;5048165;28;19925;-52
2023/01/19 01:09:22;;;;;;;;;;;;;;;3.61;82.80;100162.34;5047404;28;20027;-54
2023/01/19 01:11:47;;;;;;;;;;;;;;;3.62;82.87;100176.81;5050723;28;19916;-50
2023/01/19 01:14:12;;;;;;;;;;;;;;;3.61;82.59;100181.81;5050363;28;20293;-54
2023/01/19 01:16:38;;;;;;;;;;;;;;;3.62;82.55;100184.44;5054965;28;19960;-54
2023/01/19 01:19:03;;;;;;;;;;;;;;;3.64;82.51;100180.31;5051252;28;19921;-55
2023/01/19 01:21:28;;;;;;;;;;;;;;;3.66;82.49;100185.44;5048944;28;19920;-53
2023/01/19 01:23:54;;;;;;;;;;;;;;;3.67;82.74;100189.72;5051106;28;19970;-54
2023/01/19 01:26:19;;;;;;;;;;;;;;;3.66;82.69;100181.22;5052429;28;20267;-54
2023/01/19 01:28:44;;;;;;;;;;;;;;;3.65;83.25;100179.50;5050376;28;19931;-55
2023/01/19 01:31:10;;;;;;;;;;;;;;;3.65;82.61;100171.00;5049706;28;19917;-52
2023/01/19 01:33:35;;;;;;;;;;;;;;;3.67;82.83;100179.56;5050502;28;19921;-52
2023/01/19 01:36:00;;;;;;;;;;;;;;;3.65;83.22;100171.88;5050627;28;19931;-53
2023/01/19 01:38:25;;;;;;;;;;;;;;;3.65;83.29;100171.88;5050121;28;19944;-53
2023/01/19 01:40:50;;;;;;;;;;;;;;;3.67;83.61;100171.94;5048857;28;19921;-54
2023/01/19 01:43:17;;;;;;;;;;;;;;;3.68;83.37;100183.84;5051197;28;19913;-55
2023/01/19 01:45:42;;;;;;;;;;;;;;;3.70;83.45;100180.59;5044565;28;19970;-54
2023/01/19 01:48:16;;;;;;;;;;;;;;;3.69;83.31;100178.81;5050747;28;19917;-53
2023/01/19 01:53:38;;;;;;;;;;;;;;;3.62;83.22;100181.88;5049974;28;19974;-54
2023/01/19 01:56:06;;;;;;;;;;;;;;;3.62;83.06;100179.34;5053192;28;19920;-55
2023/01/19 01:58:32;;;;;;;;;;;;;;;3.61;83.06;100190.31;5048669;28;19978;-52
2023/01/19 02:03:41;;;;;;;;;;;;;;;3.56;83.58;100185.81;5049100;28;19978;-54
2023/01/19 02:06:08;;;;;;;;;;;;;;;3.53;84.37;100188.25;5049540;28;19966;-54
2023/01/19 02:14:04;;;;;;;;;;;;;;;3.49;83.55;100192.31;5041232;28;19927;-55
2023/01/19 02:16:30;;;;;;;;;;;;;;;3.49;83.54;100194.84;5046159;28;19925;-55
2023/01/19 02:18:56;;;;;;;;;;;;;;;3.48;83.26;100198.19;5046631;28;19974;-54
2023/01/19 02:21:26;;;;;;;;;;;;;;;3.45;83.72;100201.47;5049337;28;20031;-54
2023/01/19 02:23:53;;;;;;;;;;;;;;;3.42;83.59;100203.88;5048934;28;19916;-55
2023/01/19 02:26:22;;;;;;;;;;;;;;;3.42;83.40;100196.25;5045542;28;19924;-54
2023/01/19 02:28:50;;;;;;;;;;;;;;;3.42;83.87;100203.00;5045840;28;20003;-50
2023/01/19 02:31:16;;;;;;;;;;;;;;;3.36;83.51;100203.59;5047623;28;20344;-54
2023/01/19 02:33:41;;;;;;;;;;;;;;;3.33;83.56;100210.19;5045485;28;19933;-54
2023/01/19 02:36:08;;;;;;;;;;;;;;;3.30;83.84;100203.31;5047079;28;19935;-54
2023/01/19 02:38:34;;;;;;;;;;;;;;;3.31;83.84;100211.78;5045347;28;19963;-50
2023/01/19 02:41:01;;;;;;;;;;;;;;;3.29;83.51;100210.88;5046023;28;20270;-54
2023/01/19 02:43:27;;;;;;;;;;;;;;;3.28;83.37;100212.53;5044125;28;19924;-55
2023/01/19 02:45:52;;;;;;;;;;;;;;;3.27;83.32;100214.97;5046196;28;20008;-54
2023/01/19 02:48:18;;;;;;;;;;;;;;;3.26;83.26;100214.13;5047311;28;20011;-55
2023/01/19 02:50:51;;;;;;;;;;;;;;;3.26;83.29;100220.88;5046460;28;20360;-53
2023/01/19 02:53:46;;;;;;;;;;;;;;;3.26;83.17;100219.19;5047318;28;19924;-55
2023/01/19 02:56:14;;;;;;;;;;;;;;;3.26;83.16;100220.88;5034272;28;20002;-54
2023/01/19 02:58:55;;;;;;;;;;;;;;;3.26;83.02;100224.28;5045466;28;19917;-54
2023/01/19 03:01:40;;;;;;;;;;;;;;;3.27;83.07;100227.69;5045965;28;19948;-50
2023/01/19 03:04:25;;;;;;;;;;;;;;;3.26;83.15;100229.38;5042972;28;20289;-52
2023/01/19 03:07:11;;;;;;;;;;;;;;;3.23;82.94;100230.09;5015399;28;20434;-50
2023/01/19 03:09:51;;;;;;;;;;;;;;;3.24;83.28;100238.59;5034247;28;19921;-49
2023/01/19 03:12:49;;;;;;;;;;;;;;;3.23;83.80;100239.41;5046809;28;19925;-54
2023/01/19 03:15:19;;;;;;;;;;;;;;;3.18;83.67;100239.16;5006743;28;19924;-54
2023/01/19 03:17:47;;;;;;;;;;;;;;;3.14;83.78;100244.91;5044900;28;19921;-54
2023/01/19 03:20:14;;;;;;;;;;;;;;;3.13;83.61;100249.91;5049259;28;20286;-50
2023/01/19 03:22:40;;;;;;;;;;;;;;;3.13;83.72;100257.53;5051127;28;19999;-54
2023/01/19 03:25:05;;;;;;;;;;;;;;;3.12;83.99;100261.75;5048545;28;19970;-53
2023/01/19 03:27:32;;;;;;;;;;;;;;;3.12;83.96;100261.75;5050411;28;19924;-54
2023/01/19 03:29:59;;;;;;;;;;;;;;;3.12;84.04;100271.03;5054522;28;19974;-54
2023/01/19 03:32:29;;;;;;;;;;;;;;;3.10;83.92;100257.41;5052790;28;19920;-52
2023/01/19 03:34:55;;;;;;;;;;;;;;;3.10;83.99;100272.63;5051903;28;20007;-53
2023/01/19 03:37:21;;;;;;;;;;;;;;;3.07;83.79;100275.88;5052707;28;19920;-54
2023/01/19 03:39:46;;;;;;;;;;;;;;;3.03;84.08;100268.91;5053923;28;19927;-53
2023/01/19 03:42:13;;;;;;;;;;;;;;;3.04;83.97;100278.28;5051745;28;20294;-54
2023/01/19 03:44:39;;;;;;;;;;;;;;;3.06;83.77;100278.38;5054426;28;19962;-53
2023/01/19 03:47:06;;;;;;;;;;;;;;;3.04;83.98;100288.47;5052427;28;19978;-54
2023/01/19 03:49:32;;;;;;;;;;;;;;;3.01;83.86;100293.38;5050890;28;20011;-54
2023/01/19 03:51:58;;;;;;;;;;;;;;;3.00;83.86;100286.56;5051868;28;19924;-53
2023/01/19 03:54:23;;;;;;;;;;;;;;;2.99;83.80;100301.72;5052177;28;20305;-53
2023/01/19 03:56:48;;;;;;;;;;;;;;;3.01;84.06;100303.53;5053853;28;19925;-54
2023/01/19 03:59:16;;;;;;;;;;;;;;;3.02;83.81;100306.94;5051245;28;19924;-54
2023/01/19 04:01:41;;;;;;;;;;;;;;;3.02;83.86;100312.88;5053051;28;19960;-53
2023/01/19 04:04:07;;;;;;;;;;;;;;;3.01;84.26;100312.81;5051939;28;19947;-54
2023/01/19 04:06:32;;;;;;;;;;;;;;;3.01;83.81;100315.34;5056203;28;20002;-53
2023/01/19 04:08:57;;;;;;;;;;;;;;;3.01;83.99;100313.69;5052111;28;19921;-54
2023/01/19 04:11:22;;;;;;;;;;;;;;;3.02;84.03;100317.97;5053709;28;19929;-50
2023/01/19 04:13:48;;;;;;;;;;;;;;;2.99;84.23;100314.44;5052428;28;19928;-54
2023/01/19 04:16:18;;;;;;;;;;;;;;;2.96;83.88;100318.53;5051435;28;19921;-53
2023/01/19 04:18:43;;;;;;;;;;;;;;;2.98;83.87;100320.31;5052279;28;20412;-54
2023/01/19 04:21:09;;;;;;;;;;;;;;;2.99;83.98;100325.44;5049300;28;20016;-53
2023/01/19 04:23:35;;;;;;;;;;;;;;;2.99;84.01;100325.44;5053272;28;19931;-53
2023/01/19 04:26:02;;;;;;;;;;;;;;;2.99;83.93;100325.44;5032502;28;19916;-54
2023/01/19 04:28:27;;;;;;;;;;;;;;;3.01;83.88;100325.53;5048410;28;20378;-53
2023/01/19 04:30:53;;;;;;;;;;;;;;;2.99;84.67;100332.19;5048287;28;20007;-51
2023/01/19 04:33:18;;;;;;;;;;;;;;;2.97;84.26;100337.19;5050347;28;19925;-51
2023/01/19 04:35:44;;;;;;;;;;;;;;;2.96;84.20;100333.78;5052116;28;19970;-54
2023/01/19 04:38:09;;;;;;;;;;;;;;;2.91;84.33;100332.69;5053698;28;19964;-54
2023/01/19 04:40:34;;;;;;;;;;;;;;;2.89;84.65;100341.88;5052919;28;20409;-54
2023/01/19 04:42:59;;;;;;;;;;;;;;;2.87;85.20;100346.03;5050793;28;20290;-54
2023/01/19 04:45:25;;;;;;;;;;;;;;;2.86;85.33;100338.34;5042457;28;19916;-54
2023/01/19 04:47:50;;;;;;;;;;;;;;;2.82;84.73;100332.22;5046573;28;19944;-55
2023/01/19 04:50:16;;;;;;;;;;;;;;;2.83;85.15;100322.94;5042204;28;19927;-52
2023/01/19 04:52:41;;;;;;;;;;;;;;;2.84;85.33;100286.59;5046146;28;20027;-54
2023/01/19 04:55:07;;;;;;;;;;;;;;;2.82;85.20;100267.88;5049162;28;20002;-54
2023/01/19 04:57:32;;;;;;;;;;;;;;;2.84;85.25;100258.66;5049972;28;20043;-50
2023/01/19 04:59:57;;;;;;;;;;;;;;;2.85;84.96;100265.47;5048546;28;19967;-51
2023/01/19 05:02:23;;;;;;;;;;;;;;;2.88;85.04;100273.25;5049994;28;19923;-54
2023/01/19 05:04:49;;;;;;;;;;;;;;;2.90;85.14;100274.19;5049025;28;20404;-54
2023/01/19 05:07:14;;;;;;;;;;;;;;;2.92;84.96;100275.16;5047939;28;20386;-52
2023/01/19 05:09:39;;;;;;;;;;;;;;;2.94;84.72;100268.47;5049401;28;19924;-54
2023/01/19 05:12:04;;;;;;;;;;;;;;;2.95;84.93;100268.53;5049603;28;19924;-52
2023/01/19 05:14:30;;;;;;;;;;;;;;;2.96;84.87;100269.41;5047898;28;19932;-54
2023/01/19 05:16:55;;;;;;;;;;;;;;;2.94;84.78;100276.09;5047964;28;19932;-54
2023/01/19 05:19:20;;;;;;;;;;;;;;;2.92;84.85;100270.06;5049423;28;19921;-53
2023/01/19 05:21:46;;;;;;;;;;;;;;;2.93;84.84;100265.06;5049724;28;19921;-54
2023/01/19 05:24:11;;;;;;;;;;;;;;;2.92;84.97;100277.69;5048608;28;19920;-53
2023/01/19 05:26:37;;;;;;;;;;;;;;;2.93;84.60;100280.31;5049985;28;20381;-50
2023/01/19 05:29:02;;;;;;;;;;;;;;;2.95;84.64;100280.38;5048431;28;19921;-51
2023/01/19 05:31:27;;;;;;;;;;;;;;;2.97;84.29;100294.00;5051113;28;19931;-54
2023/01/19 05:33:52;;;;;;;;;;;;;;;3.00;84.56;100294.16;5045248;28;19927;-54
2023/01/19 05:36:18;;;;;;;;;;;;;;;2.99;84.38;100302.59;5046559;28;19929;-54
2023/01/19 05:38:43;;;;;;;;;;;;;;;2.98;84.78;100302.53;5046352;28;19917;-53
2023/01/19 05:41:08;;;;;;;;;;;;;;;2.98;84.54;100308.47;5048460;28;19925;-49
2023/01/19 05:43:33;;;;;;;;;;;;;;;2.98;84.38;100308.47;5049183;28;19917;-54
2023/01/19 05:45:59;;;;;;;;;;;;;;;2.97;84.70;100316.88;5049457;28;19932;-54
2023/01/19 05:48:24;;;;;;;;;;;;;;;2.96;84.88;100325.28;5051071;28;20062;-54
2023/01/19 05:50:49;;;;;;;;;;;;;;;2.96;84.91;100322.75;5051227;28;19924;-55
2023/01/19 05:53:15;;;;;;;;;;;;;;;2.95;84.89;100323.53;5048925;28;19920;-54
2023/01/19 05:55:41;;;;;;;;;;;;;;;2.98;84.85;100326.25;5049879;28;19923;-51
2023/01/19 05:58:06;;;;;;;;;;;;;;;2.99;84.55;100329.66;5049863;28;19920;-54
2023/01/19 06:00:31;;;;;;;;;;;;;;;2.98;84.64;100327.91;5049308;28;20381;-53
2023/01/19 06:02:57;;;;;;;;;;;;;;;2.98;84.78;100321.16;5049749;28;19939;-52
2023/01/19 06:05:22;;;;;;;;;;;;;;;2.99;84.78;100327.13;5052299;28;20008;-54
2023/01/19 06:07:47;;;;;;;;;;;;;;;2.98;84.67;100328.78;5048779;28;19921;-54
2023/01/19 06:10:12;;;;;;;;;;;;;;;2.98;84.83;100333.88;5047931;28;19959;-51
2023/01/19 06:12:39;;;;;;;;;;;;;;;2.97;85.06;100337.19;5049918;28;19924;-54
2023/01/19 06:15:05;;;;;;;;;;;;;;;2.95;85.45;100331.16;5052916;28;20376;-54
2023/01/19 06:17:31;;;;;;;;;;;;;;;2.97;85.28;100339.72;5046901;28;19925;-55
2023/01/19 06:19:56;;;;;;;;;;;;;;;2.96;85.17;100340.53;5048018;28;19971;-53
2023/01/19 06:22:22;;;;;;;;;;;;;;;2.94;85.10;100345.53;5049902;28;19920;-54
2023/01/19 06:24:47;;;;;;;;;;;;;;;2.93;85.30;100351.41;5048708;28;19979;-52
2023/01/19 06:27:12;;;;;;;;;;;;;;;2.93;85.80;100345.47;5047733;28;19963;-47
2023/01/19 06:29:38;;;;;;;;;;;;;;;2.95;85.31;100364.19;5050462;28;19928;-54
2023/01/19 06:32:03;;;;;;;;;;;;;;;2.94;85.54;100352.28;5049385;28;19931;-54
2023/01/19 06:34:28;;;;;;;;;;;;;;;2.96;85.41;100363.38;5048649;28;20458;-50
2023/01/19 06:36:57;;;;;;;;;;;;;;;2.95;85.66;100361.63;5049240;28;19927;-53
2023/01/19 06:39:22;;;;;;;;;;;;;;;2.94;85.92;100364.97;5048222;28;19928;-55
2023/01/19 06:41:47;;;;;;;;;;;;;;;2.95;85.78;100366.72;5049776;28;19913;-54
2023/01/19 06:44:13;;;;;;;;;;;;;;;2.94;85.49;100376.00;5048051;28;20005;-48
2023/01/19 06:46:38;;;;;;;;;;;;;;;2.96;86.07;100371.88;5051096;28;19923;-52
2023/01/19 06:49:03;;;;;;;;;;;;;;;2.96;85.69;100376.06;5046124;28;19925;-54
2023/01/19 06:51:29;;;;;;;;;;;;;;;2.98;85.96;100388.88;5048427;28;19925;-55
2023/01/19 06:53:54;;;;;;;;;;;;;;;2.99;86.30;100388.94;5049028;28;19921;-49
2023/01/19 06:56:20;;;;;;;;;;;;;;;3.00;86.04;100394.91;5047132;28;19966;-53
2023/01/19 06:58:49;;;;;;;;;;;;;;;3.01;85.93;100394.97;5046581;28;20350;-52
2023/01/19 07:01:14;;;;;;;;;;;;;;;3.03;86.27;100397.56;5045168;28;19971;-52
2023/01/19 07:03:40;;;;;;;;;;;;;;;3.04;85.99;100406.97;5047601;28;20409;-51
2023/01/19 07:06:05;;;;;;;;;;;;;;;3.02;86.11;100406.88;5052160;28;19929;-50
2023/01/19 07:08:31;;;;;;;;;;;;;;;3.03;86.35;100408.59;5048415;28;19963;-50
2023/01/19 07:11:05;;;;;;;;;;;;;;;3.04;86.49;100406.97;5044447;28;19925;-50
2023/01/19 07:13:32;;;;;;;;;;;;;;;3.06;86.13;100423.16;5042804;28;19967;-52
2023/01/19 07:15:57;;;;;;;;;;;;;;;3.07;86.34;100415.59;5043286;28;19928;-51
2023/01/19 07:18:22;;;;;;;;;;;;;;;3.06;86.49;100418.94;5028511;28;20034;-51
2023/01/19 07:20:48;;;;;;;;;;;;;;;3.05;86.31;100422.28;5047500;28;20019;-57
2023/01/19 07:23:14;;;;;;;;;;;;;;;3.07;86.54;100425.75;5046351;28;19933;-53
2023/01/19 07:25:39;;;;;;;;;;;;;;;3.09;86.28;100431.78;5043581;28;19939;-54
2023/01/19 07:28:04;;;;;;;;;;;;;;;3.08;86.61;100432.56;5047182;28;20385;-50
2023/01/19 07:30:30;;;;;;;;;;;;;;;3.09;86.52;100430.91;5035323;28;19921;-48
2023/01/19 07:32:56;;;;;;;;;;;;;;;3.09;86.63;100441.06;5042799;28;19957;-53
2023/01/19 07:35:21;;;;;;;;;;;;;;;3.08;86.63;100436.78;5042998;28;19924;-51
2023/01/19 07:37:47;;;;;;;;;;;;;;;3.09;86.74;100438.53;5044069;28;20019;-53
2023/01/19 07:40:12;;;;;;;;;;;;;;;3.09;87.01;100446.16;5042379;28;19936;-50
2023/01/19 07:42:37;;;;;;;;;;;;;;;3.09;86.84;100439.41;5043679;28;19970;-49
2023/01/19 07:45:03;;;;;;;;;;;;;;;3.11;86.70;100447.13;5045048;28;19969;-52
2023/01/19 07:47:28;;;;;;;;;;;;;;;3.12;86.81;100454.81;5043607;28;19924;-52
2023/01/19 07:49:54;;;;;;;;;;;;;;;3.14;86.88;100458.28;5044289;28;20263;-51
2023/01/19 07:52:19;;;;;;;;;;;;;;;3.14;86.59;100460.84;5026674;28;19932;-47
2023/01/19 07:54:44;;;;;;;;;;;;;;;3.15;86.65;100460.03;5044108;28;19924;-51
2023/01/19 07:57:10;;;;;;;;;;;;;;;3.17;86.44;100465.22;5042542;28;19952;-50
2023/01/19 07:59:35;;;;;;;;;;;;;;;3.19;86.58;100477.19;5043922;28;19928;-52
2023/01/19 08:02:00;;;;;;;;;;;;;;;3.19;86.77;100474.66;5046393;28;19921;-48
2023/01/19 08:04:26;;;;;;;;;;;;;;;3.19;86.31;100477.19;5044978;28;20424;-51
2023/01/19 08:06:51;;;;;;;;;;;;;;;3.20;86.31;100484.00;5049939;28;20620;-53
2023/01/19 08:09:17;;;;;;;;;;;;;;;3.19;86.22;100484.81;5044713;28;19967;-53
2023/01/19 08:11:42;;;;;;;;;;;;;;;3.19;86.36;100494.09;5048965;28;19921;-52
2023/01/19 08:14:07;;;;;;;;;;;;;;;3.19;86.59;100492.44;5045017;28;20293;-51
2023/01/19 08:16:33;;;;;;;;;;;;;;;3.20;86.56;100499.25;5045755;28;19936;-50
2023/01/19 08:18:58;;;;;;;;;;;;;;;3.20;86.35;100506.88;5042809;28;19925;-52
2023/01/19 08:21:23;;;;;;;;;;;;;;;3.21;86.24;100505.22;5030076;28;19990;-52
2023/01/19 08:23:56;;;;;;;;;;;;;;;3.23;86.20;100513.81;5048138;28;19998;-53
2023/01/19 08:26:26;;;;;;;;;;;;;;;3.22;85.93;100528.19;5049263;28;19924;-53
2023/01/19 08:28:52;;;;;;;;;;;;;;;3.23;86.28;100534.13;5048350;28;20304;-53
2023/01/19 08:31:17;;;;;;;;;;;;;;;3.24;86.03;100543.50;5053141;28;19917;-53
2023/01/19 08:33:43;;;;;;;;;;;;;;;3.27;86.26;100550.41;5046373;28;20835;-52
2023/01/19 08:36:08;;;;;;;;;;;;;;;3.27;86.12;100556.34;5047074;28;19931;-49
2023/01/19 08:38:33;;;;;;;;;;;;;;;3.30;86.28;100559.06;5049154;28;19974;-52
2023/01/19 08:40:58;;;;;;;;;;;;;;;3.32;86.32;100569.31;5048610;28;20293;-52
2023/01/19 08:43:23;;;;;;;;;;;;;;;3.31;86.34;100558.25;5048429;28;19972;-53
2023/01/19 08:45:50;;;;;;;;;;;;;;;3.33;85.94;100574.44;5053812;28;19931;-50
2023/01/19 08:48:16;;;;;;;;;;;;;;;3.34;85.89;100566.06;5050920;28;19999;-53
2023/01/19 08:50:44;;;;;;;;;;;;;;;3.35;86.28;100570.34;5046535;28;19916;-53
2023/01/19 08:53:09;;;;;;;;;;;;;;;3.37;86.18;100572.97;5047496;28;19983;-52
2023/01/19 08:55:35;;;;;;;;;;;;;;;3.37;86.48;100573.81;5046949;28;20336;-53
2023/01/19 08:58:02;;;;;;;;;;;;;;;3.38;86.12;100574.69;5050326;28;20184;-52
2023/01/19 09:00:30;;;;;;;;;;;;;;;3.40;86.30;100578.22;5048936;28;19978;-49
2023/01/19 09:02:55;;;;;;;;;;;;;;;3.39;86.25;100586.59;5048599;28;20016;-51
2023/01/19 09:05:21;;;;;;;;;;;;;;;3.39;86.14;100581.53;5049748;28;20422;-54
2023/01/19 09:07:50;;;;;;;;;;;;;;;3.38;86.39;100583.19;5049161;28;19928;-50
2023/01/19 09:10:16;;;;;;;;;;;;;;;3.39;86.19;100587.47;5052754;28;19920;-53
2023/01/19 09:12:42;;;;;;;;;;;;;;;3.40;86.52;100583.31;5050549;28;19917;-53
2023/01/19 09:15:09;;;;;;;;;;;;;;;3.39;86.36;100592.56;5048261;28;19921;-53
2023/01/19 09:17:35;;;;;;;;;;;;;;;3.40;86.54;100588.38;5048787;28;19967;-48
2023/01/19 09:20:00;;;;;;;;;;;;;;;3.41;86.85;100587.59;5048660;28;19916;-49
2023/01/19 09:22:25;;;;;;;;;;;;;;;3.40;86.62;100581.63;5049370;28;19916;-52
2023/01/19 09:24:50;;;;;;;;;;;;;;;3.41;86.62;100585.03;5051388;28;20023;-51
2023/01/19 09:27:16;;;;;;;;;;;;;;;3.41;86.52;100595.22;5048571;28;19925;-52
2023/01/19 09:29:42;;;;;;;;;;;;;;;3.41;86.56;100598.63;5027290;28;19998;-54
2023/01/19 09:32:10;;;;;;;;;;;;;;;3.42;86.49;100594.41;5049683;28;19921;-54
2023/01/19 09:34:35;;;;;;;;;;;;;;;3.41;86.86;100600.28;5032009;28;19928;-52
2023/01/19 09:37:00;;;;;;;;;;;;;;;3.39;86.65;100590.03;5048769;28;19921;-54
2023/01/19 09:39:25;;;;;;;;;;;;;;;3.39;86.84;100602.72;5034616;28;19925;-54
2023/01/19 09:41:58;;;;;;;;;;;;;;;3.40;86.37;100603.63;5052735;28;19946;-53
2023/01/19 09:44:27;;;;;;;;;;;;;;;3.39;86.50;100592.56;5050434;28;19916;-48
2023/01/19 09:46:52;;;;;;;;;;;;;;;3.40;86.52;100606.19;5052299;28;19920;-53
2023/01/19 09:49:39;;;;;;;;;;;;;;;3.39;86.70;100596.78;5049196;28;19924;-54
2023/01/19 09:52:08;;;;;;;;;;;;;;;3.41;86.77;100610.47;5049440;28;19923;-52
2023/01/19 09:54:46;;;;;;;;;;;;;;;3.43;86.60;100609.72;5048221;28;19920;-50
2023/01/19 09:57:12;;;;;;;;;;;;;;;3.55;86.73;100617.13;5048199;28;20365;-54
2023/01/19 09:59:38;;;;;;;;;;;;;;;3.68;86.99;100616.97;5050623;28;20270;-54
2023/01/19 10:02:32;;;;;;;;;;;;;;;3.78;86.91;100609.81;5049385;28;20007;-53
2023/01/19 10:04:59;;;;;;;;;;;;;;;3.90;86.86;100618.94;5036342;28;20011;-54
2023/01/19 10:07:30;;;;;;;;;;;;;;;4.03;86.63;100621.31;5050391;28;19943;-50
2023/01/19 10:10:14;;;;;;;;;;;;;;;4.16;86.54;100629.56;5036137;28;19974;-51
2023/01/19 10:12:58;;;;;;;;;;;;;;;4.29;86.10;100620.03;5048761;28;19924;-54
2023/01/19 10:15:26;;;;;;;;;;;;;;;4.45;85.98;100625.91;5046618;28;20246;-53
2023/01/19 10:17:59;;;;;;;;;;;;;;;4.60;85.87;100626.63;5048752;28;20316;-53
2023/01/19 10:20:28;;;;;;;;;;;;;;;4.74;85.67;100630.72;5048812;28;19924;-55
2023/01/19 10:22:55;;;;;;;;;;;;;;;4.86;85.24;100625.34;5049464;28;19924;-50
2023/01/19 10:25:24;;;;;;;;;;;;;;;4.97;85.30;100625.81;5049395;28;20027;-54
2023/01/19 10:27:49;;;;;;;;;;;;;;;5.08;84.59;100625.50;5049407;28;20285;-54
2023/01/19 10:30:22;;;;;;;;;;;;;;;5.16;84.85;100630.97;5046168;28;19925;-54
2023/01/19 10:32:47;;;;;;;;;;;;;;;5.34;84.94;100626.72;5049565;28;19932;-55
2023/01/19 10:35:20;;;;;;;;;;;;;;;5.53;84.94;100632.66;5048000;28;20324;-53
2023/01/19 10:37:46;;;;;;;;;;;;;;;5.69;84.36;100624.84;5032847;28;19925;-54
2023/01/19 10:40:11;;;;;;;;;;;;;;;5.80;83.94;100631.28;5043267;28;20490;-54
2023/01/19 10:42:38;;;;;;;;;;;;;;;5.94;84.58;100631.91;5047858;28;19960;-52
2023/01/19 10:45:13;;;;;;;;;;;;;;;6.13;83.95;100633.59;5035414;28;19916;-54
2023/01/19 10:47:40;;;;;;;;;;;;;;;6.23;81.96;100633.13;5045870;28;20007;-52
2023/01/19 10:50:22;;;;;;;;;;;;;;;6.35;82.35;100628.53;5046506;28;20377;-52
2023/01/19 10:52:51;;;;;;;;;;;;;;;6.54;82.27;100626.72;5047202;28;20386;-55
2023/01/19 10:55:24;;;;;;;;;;;;;;;6.65;81.05;100626.34;5048602;28;20373;-53
2023/01/19 10:57:51;;;;;;;;;;;;;;;6.74;82.71;100630.13;5046175;28;20010;-53
2023/01/19 11:00:36;;;;;;;;;;;;;;;6.82;84.35;100628.72;5045532;28;19966;-49
2023/01/19 11:03:02;;;;;;;;;;;;;;;6.91;82.23;100631.63;5044325;28;20019;-52
2023/01/19 11:05:28;;;;;;;;;;;;;;;6.95;83.27;100626.69;5045302;28;20011;-52
2023/01/19 11:07:55;;;;;;;;;;;;;;;6.99;83.86;100623.44;5044389;28;19966;-50
2023/01/19 11:10:20;;;;;;;;;;;;;;;7.00;81.87;100624.31;5044175;28;20436;-49
2023/01/19 11:13:00;;;;;;;;;;;;;;;6.94;80.36;100618.97;5044456;28;19924;-50
2023/01/19 11:15:33;;;;;;;;;;;;;;;6.93;80.82;100628.31;5046161;28;19917;-51
2023/01/19 11:18:00;;;;;;;;;;;;;;;6.91;79.35;100622.25;5045129;28;20011;-51
2023/01/19 11:20:32;;;;;;;;;;;;;;;6.87;80.08;100624.66;5025751;28;19921;-50
2023/01/19 11:23:13;;;;;;;;;;;;;;;6.82;80.21;100626.16;5045862;28;20300;-49
2023/01/19 11:25:39;;;;;;;;;;;;;;;6.80;80.36;100627.81;5048423;28;19920;-51
2023/01/19 11:28:05;;;;;;;;;;;;;;;6.78;79.53;100627.72;5046181;28;19921;-47
2023/01/19 11:30:30;;;;;;;;;;;;;;;6.76;78.89;100629.34;5044784;28;19978;-49
2023/01/19 11:32:55;;;;;;;;;;;;;;;6.74;79.48;100625.00;5044459;28;19921;-51
2023/01/19 11:35:27;;;;;;;;;;;;;;;6.76;80.03;100629.34;5046209;28;20308;-51
2023/01/19 11:38:03;;;;;;;;;;;;;;;6.75;79.93;100626.75;5045550;28;19946;-47
2023/01/19 11:40:29;;;;;;;;;;;;;;;6.74;79.28;100630.13;5041605;28;19943;-48
2023/01/19 11:42:54;;;;;;;;;;;;;;;6.70;78.72;100624.00;5050701;28;19920;-50
2023/01/19 11:45:20;;;;;;;;;;;;;;;6.66;78.50;100627.22;5048412;28;20389;-51
2023/01/19 11:47:51;;;;;;;;;;;;;;;6.65;79.12;100630.59;5050486;28;19972;-42
2023/01/19 11:50:22;;;;;;;;;;;;;;;6.62;79.29;100625.38;5051484;28;19970;-52
2023/01/19 11:52:54;;;;;;;;;;;;;;;6.64;79.58;100626.31;5048332;28;19964;-50
2023/01/19 11:55:38;;;;;;;;;;;;;;;6.64;78.44;100639.06;5051572;28;19921;-48
2023/01/19 11:58:04;;;;;;;;;;;;;;;6.60;78.75;100637.19;5049939;28;20362;-49
2023/01/19 12:00:37;;;;;;;;;;;;;;;6.55;78.28;100637.03;5051037;28;19928;-46
2023/01/19 12:03:11;;;;;;;;;;;;;;;6.52;78.35;100631.78;5048224;28;19924;-47
2023/01/19 12:05:39;;;;;;;;;;;;;;;6.49;78.18;100629.09;5052740;28;19970;-51
2023/01/19 12:08:08;;;;;;;;;;;;;;;6.47;78.41;100625.63;5049926;28;20412;-48
2023/01/19 12:10:37;;;;;;;;;;;;;;;6.50;78.82;100630.00;5050056;28;19987;-50
2023/01/19 12:13:03;;;;;;;;;;;;;;;6.50;78.71;100620.66;5048427;28;19928;-51
2023/01/19 12:15:40;;;;;;;;;;;;;;;6.51;79.00;100629.19;5048479;28;20313;-52
2023/01/19 12:18:10;;;;;;;;;;;;;;;6.50;78.68;100622.34;5050965;28;19924;-51
2023/01/19 12:20:37;;;;;;;;;;;;;;;6.50;78.98;100633.41;5047895;28;19928;-51
2023/01/19 12:23:03;;;;;;;;;;;;;;;6.51;79.33;100627.50;5048810;28;19928;-51
2023/01/19 12:25:43;;;;;;;;;;;;;;;6.53;79.20;100628.41;5049427;28;19925;-51
2023/01/19 12:28:11;;;;;;;;;;;;;;;6.54;79.49;100632.72;5047540;28;19917;-51
2023/01/19 12:30:37;;;;;;;;;;;;;;;6.57;79.04;100626.88;5048569;28;20380;-50
2023/01/19 12:33:20;;;;;;;;;;;;;;;6.56;78.84;100633.66;5048890;28;19933;-48
2023/01/19 12:35:55;;;;;;;;;;;;;;;6.57;78.76;100630.31;5049109;28;19960;-52
2023/01/19 12:38:39;;;;;;;;;;;;;;;6.59;78.88;100625.25;5049685;28;20385;-51
2023/01/19 12:41:23;;;;;;;;;;;;;;;6.60;78.64;100632.97;5047686;28;19917;-50
2023/01/19 12:44:07;;;;;;;;;;;;;;;6.60;78.63;100634.66;5049724;28;20369;-51
2023/01/19 12:46:32;;;;;;;;;;;;;;;6.59;78.56;100630.34;5030319;28;20363;-49
2023/01/19 12:49:10;;;;;;;;;;;;;;;6.60;78.55;100626.97;5050115;28;19964;-52
2023/01/19 12:51:35;;;;;;;;;;;;;;;6.59;78.73;100633.78;5045707;28;19963;-52
2023/01/19 12:54:01;;;;;;;;;;;;;;;6.58;78.54;100633.72;5048308;28;19929;-51
2023/01/19 12:56:32;;;;;;;;;;;;;;;6.56;79.08;100631.13;5049576;28;20381;-50
2023/01/19 12:58:57;;;;;;;;;;;;;;;6.58;78.90;100634.59;5049613;28;19963;-51
2023/01/19 13:01:23;;;;;;;;;;;;;;;6.59;78.54;100636.34;5049577;28;19968;-51